sensor_id;sensor_type;location;lat;lon;timestamp;pressure;altitude;pressure_sealevel;temperature;humidity
1694;BME280;71975;47.068;15.408;2023-11-19T00:02:45;97911.94;;;5.93;60.27
1694;BME280;71975;47.068;15.408;2023-11-19T00:07:49;97895.56;;;6.02;59.81
1694;BME280;71975;47.068;15.408;2023-11-19T00:12:52;97899.81;;;6.03;60.68
1694;BME280;71975;47.068;15.408;2023-11-19T00:17:56;97895.25;;;6.07;60.91
1694;BME280;71975;47.068;15.408;2023-11-19T00:23:02;97885.59;;;6.03;61.28
1694;BME280;71975;47.068;15.408;2023-11-19T00:28:05;97877.88;;;6.01;61.21
1694;BME280;71975;47.068;15.408;2023-11-19T00:33:10;97870.97;;;6.00;61.44
1694;BME280;71975;47.068;15.408;2023-11-19T00:38:12;97868.63;;;5.98;62.16
1694;BME280;71975;47.068;15.408;2023-11-19T00:43:15;97898.56;;;5.97;62.57
1694;BME280;71975;47.068;15.408;2023-11-19T00:48:21;97866.63;;;5.92;61.89
1694;BME280;71975;47.068;15.408;2023-11-19T00:53:24;97855.47;;;5.90;61.25
1694;BME280;71975;47.068;15.408;2023-11-19T00:58:26;97854.06;;;5.99;61.66
1694;BME280;71975;47.068;15.408;2023-11-19T01:03:31;97844.03;;;5.96;60.21
1694;BME280;71975;47.068;15.408;2023-11-19T01:08:35;97859.38;;;5.96;59.29
1694;BME280;71975;47.068;15.408;2023-11-19T01:13:38;97876.25;;;5.93;58.72
1694;BME280;71975;47.068;15.408;2023-11-19T01:18:42;97858.56;;;5.92;58.46
1694;BME280;71975;47.068;15.408;2023-11-19T01:23:46;97831.69;;;5.88;58.53
1694;BME280;71975;47.068;15.408;2023-11-19T01:28:49;97826.00;;;5.97;58.42
1694;BME280;71975;47.068;15.408;2023-11-19T01:33:55;97829.09;;;5.99;58.34
1694;BME280;71975;47.068;15.408;2023-11-19T01:38:58;97809.50;;;5.95;58.72
1694;BME280;71975;47.068;15.408;2023-11-19T01:44:01;97807.91;;;5.90;58.59
1694;BME280;71975;47.068;15.408;2023-11-19T01:49:06;97791.81;;;5.94;59.06
1694;BME280;71975;47.068;15.408;2023-11-19T01:54:11;97781.66;;;5.84;59.66
1694;BME280;71975;47.068;15.408;2023-11-19T01:59:15;97789.69;;;5.80;59.95
1694;BME280;71975;47.068;15.408;2023-11-19T02:04:20;97777.03;;;5.81;61.02
1694;BME280;71975;47.068;15.408;2023-11-19T02:09:24;97763.16;;;5.75;61.78
1694;BME280;71975;47.068;15.408;2023-11-19T02:14:28;97750.09;;;5.74;62.31
1694;BME280;71975;47.068;15.408;2023-11-19T02:19:33;97741.59;;;5.68;63.65
1694;BME280;71975;47.068;15.408;2023-11-19T02:24:37;97731.94;;;5.64;63.42
1694;BME280;71975;47.068;15.408;2023-11-19T02:29:41;97731.84;;;5.57;64.44
1694;BME280;71975;47.068;15.408;2023-11-19T02:34:44;97721.50;;;5.59;65.03
1694;BME280;71975;47.068;15.408;2023-11-19T02:39:47;97719.88;;;5.51;65.72
1694;BME280;71975;47.068;15.408;2023-11-19T02:44:51;97724.34;;;5.40;67.03
1694;BME280;71975;47.068;15.408;2023-11-19T02:49:54;97709.81;;;5.44;67.15
1694;BME280;71975;47.068;15.408;2023-11-19T02:54:57;97694.06;;;5.43;66.97
1694;BME280;71975;47.068;15.408;2023-11-19T03:00:02;97692.06;;;5.36;67.92
1694;BME280;71975;47.068;15.408;2023-11-19T03:05:13;97674.34;;;5.28;68.92
1694;BME280;71975;47.068;15.408;2023-11-19T03:10:18;97682.00;;;5.29;69.62
1694;BME280;71975;47.068;15.408;2023-11-19T03:15:22;97678.19;;;5.30;69.86
1694;BME280;71975;47.068;15.408;2023-11-19T03:20:25;97664.34;;;5.28;70.75
1694;BME280;71975;47.068;15.408;2023-11-19T03:25:29;97662.41;;;5.25;70.03
1694;BME280;71975;47.068;15.408;2023-11-19T03:30:37;97650.19;;;5.28;70.46
1694;BME280;71975;47.068;15.408;2023-11-19T03:35:40;97637.19;;;5.33;70.08
1694;BME280;71975;47.068;15.408;2023-11-19T03:40:44;97624.09;;;5.28;69.81
1694;BME280;71975;47.068;15.408;2023-11-19T03:45:48;97614.50;;;5.27;70.80
1694;BME280;71975;47.068;15.408;2023-11-19T03:50:51;97603.38;;;5.25;70.61
1694;BME280;71975;47.068;15.408;2023-11-19T03:55:54;97607.59;;;5.26;71.14
1694;BME280;71975;47.068;15.408;2023-11-19T04:00:59;97603.69;;;5.20;70.91
1694;BME280;71975;47.068;15.408;2023-11-19T04:06:02;97596.84;;;5.26;70.88
1694;BME280;71975;47.068;15.408;2023-11-19T04:11:05;97583.81;;;5.25;70.94
1694;BME280;71975;47.068;15.408;2023-11-19T04:16:11;97575.06;;;5.31;70.15
1694;BME280;71975;47.068;15.408;2023-11-19T04:21:14;97565.44;;;5.30;69.79
1694;BME280;71975;47.068;15.408;2023-11-19T04:26:17;97577.75;;;5.31;70.43
1694;BME280;71975;47.068;15.408;2023-11-19T04:31:22;97558.56;;;5.29;70.75
1694;BME280;71975;47.068;15.408;2023-11-19T04:36:25;97562.03;;;5.30;71.13
1694;BME280;71975;47.068;15.408;2023-11-19T04:41:29;97572.78;;;5.33;71.25
1694;BME280;71975;47.068;15.408;2023-11-19T04:46:33;97553.88;;;5.23;72.41
1694;BME280;71975;47.068;15.408;2023-11-19T04:51:38;97559.94;;;5.16;72.38
1694;BME280;71975;47.068;15.408;2023-11-19T04:56:45;97555.72;;;5.15;72.79
1694;BME280;71975;47.068;15.408;2023-11-19T05:01:50;97550.69;;;5.14;73.12
1694;BME280;71975;47.068;15.408;2023-11-19T05:06:53;97532.66;;;5.11;72.53
1694;BME280;71975;47.068;15.408;2023-11-19T05:11:56;97531.88;;;5.10;73.03
1694;BME280;71975;47.068;15.408;2023-11-19T05:17:00;97517.66;;;5.06;73.15
1694;BME280;71975;47.068;15.408;2023-11-19T05:22:03;97506.09;;;4.99;72.47
1694;BME280;71975;47.068;15.408;2023-11-19T05:27:08;97502.97;;;4.97;73.05
1694;BME280;71975;47.068;15.408;2023-11-19T05:32:14;97499.03;;;4.87;72.80
1694;BME280;71975;47.068;15.408;2023-11-19T05:37:17;97503.28;;;4.92;72.95
1694;BME280;71975;47.068;15.408;2023-11-19T05:42:20;97505.16;;;4.84;73.33
1694;BME280;71975;47.068;15.408;2023-11-19T05:47:25;97517.31;;;4.78;74.83
1694;BME280;71975;47.068;15.408;2023-11-19T05:52:28;97494.34;;;4.77;74.90
1694;BME280;71975;47.068;15.408;2023-11-19T05:57:35;97491.41;;;4.89;74.10
1694;BME280;71975;47.068;15.408;2023-11-19T06:02:49;97484.91;;;4.90;74.19
1694;BME280;71975;47.068;15.408;2023-11-19T06:07:52;97472.97;;;4.84;74.71
1694;BME280;71975;47.068;15.408;2023-11-19T06:12:55;97469.97;;;4.93;73.90
1694;BME280;71975;47.068;15.408;2023-11-19T06:18:00;97460.09;;;5.00;73.33
1694;BME280;71975;47.068;15.408;2023-11-19T06:23:05;97475.50;;;5.07;73.41
1694;BME280;71975;47.068;15.408;2023-11-19T06:28:08;97473.84;;;4.95;74.35
1694;BME280;71975;47.068;15.408;2023-11-19T06:33:13;97473.03;;;4.91;74.09
1694;BME280;71975;47.068;15.408;2023-11-19T06:38:17;97457.81;;;5.02;74.03
1694;BME280;71975;47.068;15.408;2023-11-19T06:43:20;97467.78;;;5.02;73.12
1694;BME280;71975;47.068;15.408;2023-11-19T06:48:25;97462.47;;;5.05;72.98
1694;BME280;71975;47.068;15.408;2023-11-19T06:53:28;97454.41;;;5.05;72.08
1694;BME280;71975;47.068;15.408;2023-11-19T06:58:31;97451.47;;;5.17;72.06
1694;BME280;71975;47.068;15.408;2023-11-19T07:03:37;97473.34;;;5.19;72.36
1694;BME280;71975;47.068;15.408;2023-11-19T07:08:41;97460.50;;;5.43;71.83
1694;BME280;71975;47.068;15.408;2023-11-19T07:13:46;97477.44;;;5.47;71.43
1694;BME280;71975;47.068;15.408;2023-11-19T07:18:51;97475.94;;;5.53;71.69
1694;BME280;71975;47.068;15.408;2023-11-19T07:23:54;97472.00;;;5.83;69.96
1694;BME280;71975;47.068;15.408;2023-11-19T07:28:57;97458.59;;;5.87;69.78
1694;BME280;71975;47.068;15.408;2023-11-19T07:34:01;97438.59;;;5.81;69.45
1694;BME280;71975;47.068;15.408;2023-11-19T07:39:05;97387.38;;;5.56;71.09
1694;BME280;71975;47.068;15.408;2023-11-19T07:44:08;97397.19;;;5.34;71.87
1694;BME280;71975;47.068;15.408;2023-11-19T07:49:12;97434.72;;;5.27;72.58
1694;BME280;71975;47.068;15.408;2023-11-19T07:54:15;97449.66;;;5.28;72.25
1694;BME280;71975;47.068;15.408;2023-11-19T07:59:18;97418.59;;;5.75;71.41
1694;BME280;71975;47.068;15.408;2023-11-19T08:04:23;97441.59;;;5.72;70.63
1694;BME280;71975;47.068;15.408;2023-11-19T08:09:26;97449.31;;;5.77;70.99
1694;BME280;71975;47.068;15.408;2023-11-19T08:14:29;97448.16;;;6.29;68.75
1694;BME280;71975;47.068;15.408;2023-11-19T08:19:33;97445.69;;;6.82;67.04
1694;BME280;71975;47.068;15.408;2023-11-19T08:24:36;97446.19;;;7.33;64.35
1694;BME280;71975;47.068;15.408;2023-11-19T08:29:39;97421.56;;;7.35;63.94
1694;BME280;71975;47.068;15.408;2023-11-19T08:34:44;97408.09;;;7.31;62.40
1694;BME280;71975;47.068;15.408;2023-11-19T08:39:47;97401.56;;;7.50;63.17
1694;BME280;71975;47.068;15.408;2023-11-19T08:44:50;97408.47;;;7.30;63.95
1694;BME280;71975;47.068;15.408;2023-11-19T08:49:57;97391.53;;;7.01;64.68
1694;BME280;71975;47.068;15.408;2023-11-19T08:55:04;97399.25;;;7.27;63.61
1694;BME280;71975;47.068;15.408;2023-11-19T09:00:08;97381.94;;;7.25;65.18
1694;BME280;71975;47.068;15.408;2023-11-19T09:05:12;97375.41;;;7.47;64.34
1694;BME280;71975;47.068;15.408;2023-11-19T09:10:15;97373.81;;;7.85;62.02
1694;BME280;71975;47.068;15.408;2023-11-19T09:15:18;97377.59;;;8.23;60.78
1694;BME280;71975;47.068;15.408;2023-11-19T09:20:23;97377.53;;;8.44;60.91
1694;BME280;71975;47.068;15.408;2023-11-19T09:25:26;97361.31;;;8.51;59.86
1694;BME280;71975;47.068;15.408;2023-11-19T09:30:45;97351.59;;;8.71;58.60
1694;BME280;71975;47.068;15.408;2023-11-19T09:35:49;97344.28;;;8.68;59.80
1694;BME280;71975;47.068;15.408;2023-11-19T09:40:52;97346.78;;;8.27;60.48
1694;BME280;71975;47.068;15.408;2023-11-19T09:45:56;97342.19;;;8.14;61.00
1694;BME280;71975;47.068;15.408;2023-11-19T09:51:02;97298.16;;;8.41;61.11
1694;BME280;71975;47.068;15.408;2023-11-19T09:56:06;97314.00;;;8.32;61.13
1694;BME280;71975;47.068;15.408;2023-11-19T10:01:09;97325.88;;;8.49;60.97
1694;BME280;71975;47.068;15.408;2023-11-19T10:06:18;97320.19;;;8.98;59.12
1694;BME280;71975;47.068;15.408;2023-11-19T10:11:22;97288.25;;;9.34;57.53
1694;BME280;71975;47.068;15.408;2023-11-19T10:16:28;97265.00;;;9.03;57.89
1694;BME280;71975;47.068;15.408;2023-11-19T10:21:34;97262.44;;;9.29;57.99
1694;BME280;71975;47.068;15.408;2023-11-19T10:26:37;97265.72;;;9.07;58.61
1694;BME280;71975;47.068;15.408;2023-11-19T10:31:43;97253.06;;;8.97;58.67
1694;BME280;71975;47.068;15.408;2023-11-19T10:36:59;97247.44;;;8.77;59.31
1694;BME280;71975;47.068;15.408;2023-11-19T10:42:15;97225.75;;;8.91;59.37
1694;BME280;71975;47.068;15.408;2023-11-19T10:47:19;97216.47;;;8.92;59.40
1694;BME280;71975;47.068;15.408;2023-11-19T10:52:40;97219.13;;;8.99;59.01
1694;BME280;71975;47.068;15.408;2023-11-19T10:57:45;97216.13;;;8.90;58.90
1694;BME280;71975;47.068;15.408;2023-11-19T11:02:54;97215.75;;;8.88;58.86
1694;BME280;71975;47.068;15.408;2023-11-19T11:08:00;97207.53;;;9.02;59.39
1694;BME280;71975;47.068;15.408;2023-11-19T11:13:03;97201.59;;;9.18;59.21
1694;BME280;71975;47.068;15.408;2023-11-19T11:18:08;97207.25;;;9.30;58.92
1694;BME280;71975;47.068;15.408;2023-11-19T11:28:47;97195.03;;;9.19;58.94
1694;BME280;71975;47.068;15.408;2023-11-19T11:34:14;97183.38;;;9.25;58.51
1694;BME280;71975;47.068;15.408;2023-11-19T11:39:24;97169.88;;;9.25;58.03
1694;BME280;71975;47.068;15.408;2023-11-19T11:44:59;97160.63;;;9.57;57.50
1694;BME280;71975;47.068;15.408;2023-11-19T11:50:08;97156.78;;;9.58;57.24
1694;BME280;71975;47.068;15.408;2023-11-19T11:55:15;97148.03;;;9.77;57.18
1694;BME280;71975;47.068;15.408;2023-11-19T12:00:21;97142.53;;;10.14;56.01
1694;BME280;71975;47.068;15.408;2023-11-19T12:05:25;97127.88;;;10.85;54.04
1694;BME280;71975;47.068;15.408;2023-11-19T12:10:31;97120.75;;;12.09;50.52
1694;BME280;71975;47.068;15.408;2023-11-19T12:16:10;97117.75;;;14.11;44.58
1694;BME280;71975;47.068;15.408;2023-11-19T12:21:27;97102.22;;;15.92;40.23
1694;BME280;71975;47.068;15.408;2023-11-19T12:26:37;97095.44;;;17.21;37.29
1694;BME280;71975;47.068;15.408;2023-11-19T12:31:44;97092.78;;;18.23;35.17
1694;BME280;71975;47.068;15.408;2023-11-19T12:36:47;97101.72;;;18.66;34.02
1694;BME280;71975;47.068;15.408;2023-11-19T12:41:54;97090.84;;;19.33;33.04
1694;BME280;71975;47.068;15.408;2023-11-19T12:47:04;97103.75;;;18.80;33.50
1694;BME280;71975;47.068;15.408;2023-11-19T12:52:12;97086.66;;;18.85;33.25
1694;BME280;71975;47.068;15.408;2023-11-19T12:57:16;97097.53;;;18.79;33.65
1694;BME280;71975;47.068;15.408;2023-11-19T13:02:20;97099.91;;;18.63;33.33
1694;BME280;71975;47.068;15.408;2023-11-19T13:07:23;97094.28;;;18.33;33.55
1694;BME280;71975;47.068;15.408;2023-11-19T13:12:28;97090.47;;;18.64;33.37
1694;BME280;71975;47.068;15.408;2023-11-19T13:17:30;97096.69;;;17.99;34.06
1694;BME280;71975;47.068;15.408;2023-11-19T13:22:34;97097.84;;;17.01;35.84
1694;BME280;71975;47.068;15.408;2023-11-19T13:27:38;97082.50;;;16.77;35.96
1694;BME280;71975;47.068;15.408;2023-11-19T13:32:41;97082.75;;;16.51;36.73
1694;BME280;71975;47.068;15.408;2023-11-19T13:37:45;97086.25;;;16.12;37.76
1694;BME280;71975;47.068;15.408;2023-11-19T13:42:50;97109.78;;;15.57;38.98
1694;BME280;71975;47.068;15.408;2023-11-19T13:47:53;97109.13;;;14.63;41.33
1694;BME280;71975;47.068;15.408;2023-11-19T13:52:56;97107.19;;;14.26;42.75
1694;BME280;71975;47.068;15.408;2023-11-19T13:58:01;97097.16;;;13.72;44.08
1694;BME280;71975;47.068;15.408;2023-11-19T14:03:04;97097.28;;;13.40;45.34
1694;BME280;71975;47.068;15.408;2023-11-19T14:08:07;97109.66;;;13.28;45.77
1694;BME280;71975;47.068;15.408;2023-11-19T14:13:27;97107.75;;;12.97;47.34
1694;BME280;71975;47.068;15.408;2023-11-19T14:18:33;97110.44;;;12.68;48.18
1694;BME280;71975;47.068;15.408;2023-11-19T14:23:36;97124.03;;;12.52;50.10
1694;BME280;71975;47.068;15.408;2023-11-19T14:28:41;97112.31;;;12.39;50.03
1694;BME280;71975;47.068;15.408;2023-11-19T14:33:46;97115.44;;;12.21;50.16
1694;BME280;71975;47.068;15.408;2023-11-19T14:38:50;97127.22;;;12.15;50.12
1694;BME280;71975;47.068;15.408;2023-11-19T14:43:54;97119.25;;;12.08;50.30
1694;BME280;71975;47.068;15.408;2023-11-19T14:48:57;97111.94;;;11.88;50.66
1694;BME280;71975;47.068;15.408;2023-11-19T14:54:01;97102.28;;;11.68;52.06
1694;BME280;71975;47.068;15.408;2023-11-19T14:59:06;97107.34;;;11.46;53.38
1694;BME280;71975;47.068;15.408;2023-11-19T15:04:09;97100.00;;;11.27;54.11
1694;BME280;71975;47.068;15.408;2023-11-19T15:09:12;97107.28;;;11.10;55.12
1694;BME280;71975;47.068;15.408;2023-11-19T15:14:20;97107.00;;;11.05;55.78
1694;BME280;71975;47.068;15.408;2023-11-19T15:19:23;97114.56;;;10.94;56.61
1694;BME280;71975;47.068;15.408;2023-11-19T15:24:26;97104.13;;;10.73;57.66
1694;BME280;71975;47.068;15.408;2023-11-19T15:29:31;97107.41;;;10.60;58.40
1694;BME280;71975;47.068;15.408;2023-11-19T15:34:36;97087.06;;;10.29;60.20
1694;BME280;71975;47.068;15.408;2023-11-19T15:39:39;97102.75;;;10.11;60.98
1694;BME280;71975;47.068;15.408;2023-11-19T15:44:44;97130.72;;;10.01;61.72
1694;BME280;71975;47.068;15.408;2023-11-19T15:49:47;97103.69;;;10.01;61.52
1694;BME280;71975;47.068;15.408;2023-11-19T15:54:51;97100.56;;;9.76;62.83
1694;BME280;71975;47.068;15.408;2023-11-19T15:59:55;97087.19;;;9.65;63.34
1694;BME280;71975;47.068;15.408;2023-11-19T16:04:58;97107.59;;;9.70;63.90
1694;BME280;71975;47.068;15.408;2023-11-19T16:10:01;97108.94;;;9.55;64.12
1694;BME280;71975;47.068;15.408;2023-11-19T16:15:08;97109.13;;;9.41;64.90
1694;BME280;71975;47.068;15.408;2023-11-19T16:20:11;97124.78;;;9.22;65.83
1694;BME280;71975;47.068;15.408;2023-11-19T16:25:15;97111.28;;;9.22;65.88
1694;BME280;71975;47.068;15.408;2023-11-19T16:30:19;97114.00;;;9.19;66.20
1694;BME280;71975;47.068;15.408;2023-11-19T16:35:24;97125.66;;;9.12;67.46
1694;BME280;71975;47.068;15.408;2023-11-19T16:40:27;97134.91;;;9.11;67.73
1694;BME280;71975;47.068;15.408;2023-11-19T16:45:31;97141.94;;;9.05;67.80
1694;BME280;71975;47.068;15.408;2023-11-19T16:50:35;97141.19;;;9.01;68.17
1694;BME280;71975;47.068;15.408;2023-11-19T16:55:39;97136.28;;;8.89;68.25
1694;BME280;71975;47.068;15.408;2023-11-19T17:00:43;97142.50;;;8.86;69.28
1694;BME280;71975;47.068;15.408;2023-11-19T17:05:46;97125.91;;;8.88;68.74
1694;BME280;71975;47.068;15.408;2023-11-19T17:10:49;97132.22;;;8.74;70.08
1694;BME280;71975;47.068;15.408;2023-11-19T17:15:54;97127.97;;;8.73;70.29
1694;BME280;71975;47.068;15.408;2023-11-19T17:20:57;97118.03;;;8.63;70.44
1694;BME280;71975;47.068;15.408;2023-11-19T17:26:01;97101.25;;;8.45;72.13
1694;BME280;71975;47.068;15.408;2023-11-19T17:31:09;97101.63;;;8.47;71.08
1694;BME280;71975;47.068;15.408;2023-11-19T17:36:12;97114.75;;;8.45;71.61
1694;BME280;71975;47.068;15.408;2023-11-19T17:41:15;97120.19;;;8.38;71.71
1694;BME280;71975;47.068;15.408;2023-11-19T17:46:19;97110.63;;;8.30;72.99
1694;BME280;71975;47.068;15.408;2023-11-19T17:51:22;97119.53;;;8.20;74.18
1694;BME280;71975;47.068;15.408;2023-11-19T17:56:25;97117.28;;;8.08;74.41
1694;BME280;71975;47.068;15.408;2023-11-19T18:01:30;97118.53;;;7.92;74.42
1694;BME280;71975;47.068;15.408;2023-11-19T18:06:33;97118.22;;;7.83;75.40
1694;BME280;71975;47.068;15.408;2023-11-19T18:11:39;97114.38;;;7.84;76.84
1694;BME280;71975;47.068;15.408;2023-11-19T18:16:43;97115.19;;;7.74;75.57
1694;BME280;71975;47.068;15.408;2023-11-19T18:21:46;97124.84;;;7.72;75.71
1694;BME280;71975;47.068;15.408;2023-11-19T18:26:49;97125.22;;;7.70;75.31
1694;BME280;71975;47.068;15.408;2023-11-19T18:31:55;97124.53;;;7.52;77.06
1694;BME280;71975;47.068;15.408;2023-11-19T18:37:01;97114.53;;;7.53;77.14
1694;BME280;71975;47.068;15.408;2023-11-19T18:42:07;97113.78;;;7.52;76.54
1694;BME280;71975;47.068;15.408;2023-11-19T18:47:15;97108.47;;;7.38;77.79
1694;BME280;71975;47.068;15.408;2023-11-19T18:52:22;97099.97;;;7.40;77.43
1694;BME280;71975;47.068;15.408;2023-11-19T18:57:28;97097.72;;;7.31;78.98
1694;BME280;71975;47.068;15.408;2023-11-19T19:02:36;97096.19;;;7.23;79.35
1694;BME280;71975;47.068;15.408;2023-11-19T19:07:43;97097.34;;;7.22;79.41
1694;BME280;71975;47.068;15.408;2023-11-19T19:12:49;97096.97;;;7.20;79.18
1694;BME280;71975;47.068;15.408;2023-11-19T19:17:57;97110.13;;;7.04;80.65
1694;BME280;71975;47.068;15.408;2023-11-19T19:23:03;97104.69;;;7.07;79.69
1694;BME280;71975;47.068;15.408;2023-11-19T19:28:09;97105.47;;;7.08;80.30
1694;BME280;71975;47.068;15.408;2023-11-19T19:33:18;97099.22;;;7.32;91.06
1694;BME280;71975;47.068;15.408;2023-11-19T19:38:21;97105.00;;;7.38;83.35
1694;BME280;71975;47.068;15.408;2023-11-19T19:43:24;97097.38;;;7.18;83.27
1694;BME280;71975;47.068;15.408;2023-11-19T19:48:28;97116.25;;;7.11;82.20
1694;BME280;71975;47.068;15.408;2023-11-19T19:53:32;97115.56;;;6.83;83.27
1694;BME280;71975;47.068;15.408;2023-11-19T19:58:35;97107.88;;;6.78;84.23
1694;BME280;71975;47.068;15.408;2023-11-19T20:03:43;97117.09;;;6.69;85.00
1694;BME280;71975;47.068;15.408;2023-11-19T20:08:46;97127.50;;;6.60;85.81
1694;BME280;71975;47.068;15.408;2023-11-19T20:13:50;97129.00;;;6.54;86.33
1694;BME280;71975;47.068;15.408;2023-11-19T20:18:55;97135.19;;;6.58;86.57
1694;BME280;71975;47.068;15.408;2023-11-19T20:23:58;97138.63;;;6.52;86.81
1694;BME280;71975;47.068;15.408;2023-11-19T20:29:04;97136.72;;;6.45;88.05
1694;BME280;71975;47.068;15.408;2023-11-19T20:34:13;97120.97;;;6.33;87.53
1694;BME280;71975;47.068;15.408;2023-11-19T20:39:16;97141.72;;;6.29;88.34
1694;BME280;71975;47.068;15.408;2023-11-19T20:44:20;97134.03;;;6.38;88.92
1694;BME280;71975;47.068;15.408;2023-11-19T20:49:24;97135.53;;;6.32;90.71
1694;BME280;71975;47.068;15.408;2023-11-19T20:54:27;97135.53;;;6.25;90.58
1694;BME280;71975;47.068;15.408;2023-11-19T20:59:33;97131.72;;;6.19;90.36
1694;BME280;71975;47.068;15.408;2023-11-19T21:04:38;97130.19;;;6.15;90.68
1694;BME280;71975;47.068;15.408;2023-11-19T21:09:41;97128.66;;;6.17;91.52
1694;BME280;71975;47.068;15.408;2023-11-19T21:14:45;97114.41;;;6.13;91.90
1694;BME280;71975;47.068;15.408;2023-11-19T21:19:49;97123.28;;;6.03;92.60
1694;BME280;71975;47.068;15.408;2023-11-19T21:24:53;97127.84;;;5.99;92.23
1694;BME280;71975;47.068;15.408;2023-11-19T21:29:57;97125.53;;;6.01;92.79
1694;BME280;71975;47.068;15.408;2023-11-19T21:35:02;97117.88;;;5.99;94.27
1694;BME280;71975;47.068;15.408;2023-11-19T21:40:06;97126.31;;;5.98;93.43
1694;BME280;71975;47.068;15.408;2023-11-19T21:45:10;97124.34;;;5.74;91.62
1694;BME280;71975;47.068;15.408;2023-11-19T21:50:14;97128.19;;;5.76;92.91
1694;BME280;71975;47.068;15.408;2023-11-19T21:55:17;97119.38;;;5.83;92.98
1694;BME280;71975;47.068;15.408;2023-11-19T22:00:20;97123.63;;;5.91;92.06
1694;BME280;71975;47.068;15.408;2023-11-19T22:05:25;97117.47;;;5.87;92.91
1694;BME280;71975;47.068;15.408;2023-11-19T22:10:28;97122.84;;;5.90;94.63
1694;BME280;71975;47.068;15.408;2023-11-19T22:15:31;97132.84;;;5.90;97.08
1694;BME280;71975;47.068;15.408;2023-11-19T22:20:35;97119.44;;;6.00;97.03
1694;BME280;71975;47.068;15.408;2023-11-19T22:25:39;97129.41;;;6.07;97.42
1694;BME280;71975;47.068;15.408;2023-11-19T22:30:42;97124.78;;;6.04;96.68
1694;BME280;71975;47.068;15.408;2023-11-19T22:35:47;97115.59;;;5.98;98.46
1694;BME280;71975;47.068;15.408;2023-11-19T22:40:50;97121.31;;;5.93;99.99
1694;BME280;71975;47.068;15.408;2023-11-19T22:45:54;97130.16;;;5.97;100.00
1694;BME280;71975;47.068;15.408;2023-11-19T22:50:59;97120.97;;;5.98;100.00
1694;BME280;71975;47.068;15.408;2023-11-19T22:56:02;97117.13;;;5.95;100.00
1694;BME280;71975;47.068;15.408;2023-11-19T23:01:05;97109.41;;;5.94;100.00
1694;BME280;71975;47.068;15.408;2023-11-19T23:06:10;97120.94;;;5.94;100.00
1694;BME280;71975;47.068;15.408;2023-11-19T23:11:13;97114.44;;;6.03;100.00
1694;BME280;71975;47.068;15.408;2023-11-19T23:16:18;97117.84;;;5.96;100.00
1694;BME280;71975;47.068;15.408;2023-11-19T23:21:26;97107.13;;;5.96;100.00
1694;BME280;71975;47.068;15.408;2023-11-19T23:26:29;97129.75;;;5.91;100.00
1694;BME280;71975;47.068;15.408;2023-11-19T23:31:32;97133.22;;;5.92;99.96
1694;BME280;71975;47.068;15.408;2023-11-19T23:36:37;97099.00;;;5.82;100.00
1694;BME280;71975;47.068;15.408;2023-11-19T23:41:40;97104.00;;;5.80;100.00
1694;BME280;71975;47.068;15.408;2023-11-19T23:46:43;97104.03;;;5.87;100.00
1694;BME280;71975;47.068;15.408;2023-11-19T23:51:48;97089.09;;;6.00;100.00
1694;BME280;71975;47.068;15.408;2023-11-19T23:56:51;97084.88;;;6.17;100.00
